Time,TemperatureF,DewpointF,PressureIn,WindDirection,WindDirectionDegrees,WindSpeedMPH,WindSpeedGustMPH,Humidity,HourlyPrecipIn,Conditions,Clouds,dailyrainin,SoftwareType,DateUTC
2013-08-03 00:04:00,77.1,75.6,30.01,SW,227,1.0,1.0,95,0.00,,,0.00,Wunderground v.1.15,2013-08-03 04:04:00,
2013-08-03 00:14:00,76.9,75.4,30.01,SW,227,0.0,0.0,95,0.00,,,0.00,Wunderground v.1.15,2013-08-03 04:14:00,
2013-08-03 00:24:00,76.9,75.4,30.01,SW,227,0.0,2.0,95,0.00,,,0.00,Wunderground v.1.15,2013-08-03 04:24:00,
2013-08-03 00:29:00,76.9,75.4,30.01,SW,227,1.0,2.0,95,0.00,,,0.00,Wunderground v.1.15,2013-08-03 04:29:00,
2013-08-03 00:34:00,76.9,75.4,30.01,SW,227,2.0,2.0,95,0.00,,,0.00,Wunderground v.1.15,2013-08-03 04:34:00,
2013-08-03 00:39:00,76.8,75.3,30.01,SW,227,1.0,1.0,95,0.00,,,0.00,Wunderground v.1.15,2013-08-03 04:39:00,
2013-08-03 00:44:00,76.7,75.2,30.01,SW,227,0.0,1.0,95,0.00,,,0.00,Wunderground v.1.15,2013-08-03 04:44:00,
2013-08-03 00:54:00,76.6,75.1,30.01,SW,227,0.0,1.0,95,0.00,,,0.00,Wunderground v.1.15,2013-08-03 04:54:00,
2013-08-03 01:04:00,76.6,75.1,30.00,SW,227,1.0,1.0,95,0.00,,,0.00,Wunderground v.1.15,2013-08-03 05:04:00,
2013-08-03 01:14:00,76.5,75.0,30.00,SW,227,0.0,0.0,95,0.00,,,0.00,Wunderground v.1.15,2013-08-03 05:14:00,
2013-08-03 01:24:00,76.4,74.9,30.00,SW,227,0.0,0.0,95,0.00,,,0.00,Wunderground v.1.15,2013-08-03 05:24:00,
2013-08-03 01:34:00,76.5,75.0,30.01,SW,227,1.0,1.0,95,0.00,,,0.00,Wunderground v.1.15,2013-08-03 05:34:00,
2013-08-03 01:44:00,76.4,74.9,30.00,SW,227,1.0,2.0,95,0.00,,,0.00,Wunderground v.1.15,2013-08-03 05:44:00,
2013-08-03 01:54:00,76.3,74.8,30.00,SW,215,1.0,2.0,95,0.00,,,0.00,Wunderground v.1.15,2013-08-03 05:54:00,
2013-08-03 02:04:00,76.3,74.8,29.99,SSW,213,2.0,3.0,95,0.00,,,0.00,Wunderground v.1.15,2013-08-03 06:04:00,
2013-08-03 02:14:00,76.3,74.8,29.99,SSW,213,1.0,2.0,95,0.00,,,0.00,Wunderground v.1.15,2013-08-03 06:14:00,
2013-08-03 02:19:00,76.2,74.7,29.99,SSW,213,1.0,1.0,95,0.00,,,0.00,Wunderground v.1.15,2013-08-03 06:19:00,
2013-08-03 02:29:00,76.2,74.7,29.99,South,186,0.0,0.0,95,0.00,,,0.00,Wunderground v.1.15,2013-08-03 06:29:00,
2013-08-03 02:34:00,76.2,74.7,29.99,South,186,0.0,0.0,95,0.00,,,0.00,Wunderground v.1.15,2013-08-03 06:34:00,
2013-08-03 02:39:00,76.2,74.7,29.99,South,186,0.0,0.0,95,0.00,,,0.00,Wunderground v.1.15,2013-08-03 06:39:00,
2013-08-03 02:49:00,76.1,74.6,29.99,South,186,0.0,0.0,95,0.00,,,0.00,Wunderground v.1.15,2013-08-03 06:49:00,
2013-08-03 02:59:00,76.1,74.9,29.99,South,186,0.0,0.0,96,0.00,,,0.00,Wunderground v.1.15,2013-08-03 06:59:00,
2013-08-03 03:09:00,76.1,74.9,29.99,South,186,0.0,0.0,96,0.00,,,0.00,Wunderground v.1.15,2013-08-03 07:09:00,
2013-08-03 03:19:00,76.0,74.8,29.99,South,186,0.0,0.0,96,0.00,,,0.00,Wunderground v.1.15,2013-08-03 07:19:00,
2013-08-03 03:29:00,76.0,74.8,29.99,South,186,0.0,0.0,96,0.00,,,0.00,Wunderground v.1.15,2013-08-03 07:29:00,
2013-08-03 03:39:00,75.9,74.7,29.98,South,186,0.0,0.0,96,0.00,,,0.00,Wunderground v.1.15,2013-08-03 07:39:00,
2013-08-03 03:49:00,75.9,74.7,29.99,South,186,0.0,0.0,96,0.00,,,0.00,Wunderground v.1.15,2013-08-03 07:49:00,
2013-08-03 03:59:00,75.9,74.7,29.98,South,186,0.0,0.0,96,0.00,,,0.00,Wunderground v.1.15,2013-08-03 07:59:00,
2013-08-03 04:09:00,75.7,74.5,29.98,South,186,0.0,0.0,96,0.00,,,0.00,Wunderground v.1.15,2013-08-03 08:09:00,
2013-08-03 04:19:00,75.8,74.6,29.98,South,190,0.0,0.0,96,0.00,,,0.00,Wunderground v.1.15,2013-08-03 08:19:00,
2013-08-03 04:29:00,75.9,74.7,29.98,South,190,2.0,2.0,96,0.00,,,0.00,Wunderground v.1.15,2013-08-03 08:29:00,
2013-08-03 04:39:00,76.1,74.9,29.98,SSW,200,3.0,3.0,96,0.00,,,0.00,Wunderground v.1.15,2013-08-03 08:39:00,
2013-08-03 04:49:00,76.2,75.0,29.99,SSW,204,3.0,3.0,96,0.00,,,0.00,Wunderground v.1.15,2013-08-03 08:49:00,
2013-08-03 04:59:00,76.3,75.1,29.98,SSW,208,4.0,4.0,96,0.00,,,0.00,Wunderground v.1.15,2013-08-03 08:59:00,
2013-08-03 05:09:00,76.4,75.2,29.98,SSW,203,4.0,4.0,96,0.00,,,0.00,Wunderground v.1.15,2013-08-03 09:09:00,
2013-08-03 05:19:00,76.5,75.3,29.99,SSW,207,3.0,4.0,96,0.00,,,0.00,Wunderground v.1.15,2013-08-03 09:19:00,
2013-08-03 05:29:00,76.5,75.3,29.98,SSW,197,4.0,5.0,96,0.00,,,0.00,Wunderground v.1.15,2013-08-03 09:29:00,
2013-08-03 05:39:00,76.6,75.4,29.99,SSW,210,3.0,4.0,96,0.00,,,0.00,Wunderground v.1.15,2013-08-03 09:39:00,
2013-08-03 05:44:00,76.6,75.4,29.99,SSW,213,3.0,4.0,96,0.00,,,0.00,Wunderground v.1.15,2013-08-03 09:44:00,
2013-08-03 05:49:00,76.7,75.5,29.99,SSW,213,3.0,3.0,96,0.00,,,0.00,Wunderground v.1.15,2013-08-03 09:49:00,
2013-08-03 05:59:00,76.7,75.5,29.99,SW,219,2.0,4.0,96,0.00,,,0.00,Wunderground v.1.15,2013-08-03 09:59:00,
2013-08-03 06:09:00,76.6,75.4,29.99,SW,218,2.0,4.0,96,0.00,,,0.00,Wunderground v.1.15,2013-08-03 10:09:00,
2013-08-03 06:14:00,76.6,75.4,29.99,SW,217,2.0,4.0,96,0.00,,,0.00,Wunderground v.1.15,2013-08-03 10:14:00,
2013-08-03 06:19:00,76.6,75.4,29.99,SW,217,3.0,3.0,96,0.00,,,0.00,Wunderground v.1.15,2013-08-03 10:19:00,
2013-08-03 06:29:00,76.6,75.4,29.99,SW,214,3.0,3.0,96,0.00,,,0.00,Wunderground v.1.15,2013-08-03 10:29:00,
2013-08-03 06:34:00,76.6,75.4,30.00,WSW,255,2.0,3.0,96,0.00,,,0.00,Wunderground v.1.15,2013-08-03 10:34:00,
2013-08-03 06:44:00,76.5,75.3,30.00,West,264,2.0,3.0,96,0.00,,,0.00,Wunderground v.1.15,2013-08-03 10:44:00,
2013-08-03 06:54:00,76.5,75.3,30.00,West,261,1.0,3.0,96,0.00,,,0.00,Wunderground v.1.15,2013-08-03 10:54:00,
2013-08-03 07:04:00,76.5,75.3,30.00,WNW,285,1.0,1.0,96,0.00,,,0.00,Wunderground v.1.15,2013-08-03 11:04:00,
2013-08-03 07:14:00,76.7,75.5,30.00,South,191,3.0,5.0,96,0.00,,,0.00,Wunderground v.1.15,2013-08-03 11:14:00,
2013-08-03 07:24:00,76.9,75.7,30.00,South,173,2.0,2.0,96,0.00,,,0.00,Wunderground v.1.15,2013-08-03 11:24:00,
2013-08-03 07:29:00,77.1,75.9,30.00,South,177,2.0,4.0,96,0.00,,,0.00,Wunderground v.1.15,2013-08-03 11:29:00,
2013-08-03 07:39:00,77.3,75.8,30.00,SW,230,3.0,3.0,95,0.00,,,0.00,Wunderground v.1.15,2013-08-03 11:39:00,
2013-08-03 07:49:00,77.6,76.1,30.00,SW,221,3.0,4.0,95,0.00,,,0.00,Wunderground v.1.15,2013-08-03 11:49:00,
2013-08-03 07:59:00,78.0,76.5,30.00,SW,227,3.0,5.0,95,0.00,,,0.00,Wunderground v.1.15,2013-08-03 11:59:00,
2013-08-03 08:09:00,78.5,76.6,30.00,SW,225,4.0,4.0,94,0.00,,,0.00,Wunderground v.1.15,2013-08-03 12:09:00,
2013-08-03 08:14:00,78.9,77.0,30.01,SW,224,4.0,4.0,94,0.00,,,0.00,Wunderground v.1.15,2013-08-03 12:14:00,
2013-08-03 08:19:00,79.3,77.1,30.01,SW,234,3.0,3.0,93,0.00,,,0.00,Wunderground v.1.15,2013-08-03 12:19:00,
2013-08-03 08:29:00,79.6,76.7,30.01,SW,234,2.0,2.0,91,0.00,,,0.00,Wunderground v.1.15,2013-08-03 12:29:00,
2013-08-03 08:34:00,79.7,76.8,30.01,SW,234,3.0,3.0,91,0.00,,,0.00,Wunderground v.1.15,2013-08-03 12:34:00,
2013-08-03 08:39:00,79.7,76.8,30.01,SW,233,3.0,4.0,91,0.00,,,0.00,Wunderground v.1.15,2013-08-03 12:39:00,
2013-08-03 08:49:00,80.3,77.1,30.01,SW,221,3.0,3.0,90,0.00,,,0.00,Wunderground v.1.15,2013-08-03 12:49:00,
2013-08-03 08:59:00,80.6,77.1,30.00,SW,214,6.0,6.0,89,0.00,,,0.00,Wunderground v.1.15,2013-08-03 12:59:00,
2013-08-03 09:09:00,80.5,77.0,30.00,SW,236,5.0,5.0,89,0.00,,,0.00,Wunderground v.1.15,2013-08-03 13:09:00,
2013-08-03 09:14:00,80.6,77.1,30.00,SW,227,4.0,5.0,89,0.00,,,0.00,Wunderground v.1.15,2013-08-03 13:14:00,
2013-08-03 09:24:00,80.8,76.9,30.00,SW,232,4.0,6.0,88,0.00,,,0.00,Wunderground v.1.15,2013-08-03 13:24:00,
2013-08-03 09:34:00,80.9,77.0,30.00,SW,224,5.0,5.0,88,0.00,,,0.00,Wunderground v.1.15,2013-08-03 13:34:00,
2013-08-03 09:44:00,81.8,77.2,30.00,WSW,237,3.0,3.0,86,0.00,,,0.00,Wunderground v.1.15,2013-08-03 13:44:00,
2013-08-03 09:54:00,81.7,76.7,30.00,SW,215,4.0,4.0,85,0.00,,,0.00,Wunderground v.1.15,2013-08-03 13:54:00,
2013-08-03 10:04:00,82.3,77.0,30.00,SW,221,4.0,5.0,84,0.00,,,0.00,Wunderground v.1.15,2013-08-03 14:04:00,
2013-08-03 10:14:00,82.5,76.1,30.00,SSW,213,4.0,7.0,81,0.00,,,0.00,Wunderground v.1.15,2013-08-03 14:14:00,
2013-08-03 10:19:00,82.6,76.2,30.01,WSW,237,4.0,4.0,81,0.00,,,0.00,Wunderground v.1.15,2013-08-03 14:19:00,
2013-08-03 10:29:00,82.4,76.0,30.01,West,277,3.0,3.0,81,0.00,,,0.00,Wunderground v.1.15,2013-08-03 14:29:00,
2013-08-03 10:39:00,83.2,76.4,30.00,SW,219,4.0,4.0,80,0.00,,,0.00,Wunderground v.1.15,2013-08-03 14:39:00,
2013-08-03 10:49:00,83.6,75.6,30.00,West,275,4.0,4.0,77,0.00,,,0.00,Wunderground v.1.15,2013-08-03 14:49:00,
2013-08-03 10:59:00,84.0,76.0,29.99,West,268,4.0,4.0,77,0.00,,,0.00,Wunderground v.1.15,2013-08-03 14:59:00,
2013-08-03 11:09:00,83.2,76.4,29.99,West,278,3.0,3.0,80,0.00,,,0.00,Wunderground v.1.15,2013-08-03 15:09:00,
2013-08-03 11:19:00,83.9,75.9,29.99,West,269,2.0,3.0,77,0.00,,,0.00,Wunderground v.1.15,2013-08-03 15:19:00,
2013-08-03 11:24:00,83.9,76.3,29.99,WNW,292,3.0,3.0,78,0.00,,,0.00,Wunderground v.1.15,2013-08-03 15:24:00,
2013-08-03 11:34:00,84.6,76.2,29.99,West,271,3.0,6.0,76,0.00,,,0.00,Wunderground v.1.15,2013-08-03 15:34:00,
2013-08-03 11:44:00,84.0,75.2,29.99,WNW,291,3.0,5.0,75,0.00,,,0.00,Wunderground v.1.15,2013-08-03 15:44:00,
2013-08-03 11:54:00,85.5,75.4,29.99,SW,236,3.0,5.0,72,0.00,,,0.00,Wunderground v.1.15,2013-08-03 15:54:00,
2013-08-03 12:04:00,84.6,75.8,29.99,WSW,246,4.0,5.0,75,0.00,,,0.00,Wunderground v.1.15,2013-08-03 16:04:00,
2013-08-03 12:14:00,84.0,75.2,29.98,West,277,4.0,5.0,75,0.00,,,0.00,Wunderground v.1.15,2013-08-03 16:14:00,
2013-08-03 12:24:00,84.6,76.2,29.98,South,182,3.0,6.0,76,0.00,,,0.00,Wunderground v.1.15,2013-08-03 16:24:00,
2013-08-03 12:29:00,84.6,76.2,29.98,ESE,123,4.0,5.0,76,0.00,,,0.00,Wunderground v.1.15,2013-08-03 16:29:00,
2013-08-03 12:39:00,84.8,76.4,29.98,SSE,157,5.0,5.0,76,0.00,,,0.00,Wunderground v.1.15,2013-08-03 16:39:00,
2013-08-03 12:49:00,85.0,76.6,29.98,SSW,200,4.0,4.0,76,0.00,,,0.00,Wunderground v.1.15,2013-08-03 16:49:00,
2013-08-03 12:59:00,85.6,76.4,29.97,SSE,153,2.0,2.0,74,0.00,,,0.00,Wunderground v.1.15,2013-08-03 16:59:00,
2013-08-03 13:09:00,85.2,75.6,29.97,South,189,3.0,3.0,73,0.00,,,0.00,Wunderground v.1.15,2013-08-03 17:09:00,
2013-08-03 13:14:00,85.4,76.6,29.97,SSW,193,2.0,5.0,75,0.00,,,0.00,Wunderground v.1.15,2013-08-03 17:14:00,
2013-08-03 13:24:00,85.0,77.0,29.98,SSE,157,2.0,6.0,77,0.00,,,0.00,Wunderground v.1.15,2013-08-03 17:24:00,
2013-08-03 13:34:00,84.2,78.1,29.98,SSE,148,8.0,12.0,82,0.00,,,0.00,Wunderground v.1.15,2013-08-03 17:34:00,
2013-08-03 13:44:00,84.5,75.7,29.97,SSW,209,6.0,8.0,75,0.00,,,0.00,Wunderground v.1.15,2013-08-03 17:44:00,
2013-08-03 13:54:00,85.1,78.6,29.97,SSE,162,6.0,9.0,81,0.00,,,0.00,Wunderground v.1.15,2013-08-03 17:54:00,
2013-08-03 14:04:00,84.5,77.3,29.96,SSW,200,6.0,10.0,79,0.00,,,0.00,Wunderground v.1.15,2013-08-03 18:04:00,
2013-08-03 14:09:00,84.7,77.8,29.97,SSW,195,6.0,8.0,80,0.00,,,0.00,Wunderground v.1.15,2013-08-03 18:09:00,
2013-08-03 14:19:00,84.7,77.1,29.96,SSW,202,5.0,8.0,78,0.00,,,0.00,Wunderground v.1.15,2013-08-03 18:19:00,
2013-08-03 14:29:00,85.2,77.9,29.96,SSE,148,6.0,6.0,79,0.00,,,0.00,Wunderground v.1.15,2013-08-03 18:29:00,
2013-08-03 14:39:00,85.9,77.5,29.96,SE,146,5.0,10.0,76,0.00,,,0.00,Wunderground v.1.15,2013-08-03 18:39:00,
2013-08-03 14:49:00,86.0,77.9,29.96,SSE,168,6.0,6.0,77,0.00,,,0.00,Wunderground v.1.15,2013-08-03 18:49:00,
2013-08-03 14:59:00,86.3,77.8,29.95,SSW,201,6.0,6.0,76,0.00,,,0.00,Wunderground v.1.15,2013-08-03 18:59:00,
2013-08-03 15:09:00,85.9,77.5,29.95,SSW,196,7.0,8.0,76,0.00,,,0.00,Wunderground v.1.15,2013-08-03 19:09:00,
2013-08-03 15:14:00,86.1,78.0,29.94,SSE,163,6.0,8.0,77,0.00,,,0.00,Wunderground v.1.15,2013-08-03 19:14:00,
2013-08-03 15:24:00,85.4,77.0,29.94,SSW,206,6.0,9.0,76,0.00,,,0.00,Wunderground v.1.15,2013-08-03 19:24:00,
2013-08-03 15:34:00,84.9,76.9,29.94,SSW,201,6.0,8.0,77,0.00,,,0.00,Wunderground v.1.15,2013-08-03 19:34:00,
2013-08-03 15:44:00,84.2,76.6,29.93,South,184,7.0,7.0,78,0.00,,,0.00,Wunderground v.1.15,2013-08-03 19:44:00,
2013-08-03 15:54:00,84.8,77.2,29.93,SSE,156,5.0,6.0,78,0.00,,,0.00,Wunderground v.1.15,2013-08-03 19:54:00,
2013-08-03 16:04:00,85.3,77.3,29.92,SSE,149,5.0,10.0,77,0.00,,,0.00,Wunderground v.1.15,2013-08-03 20:04:00,
2013-08-03 16:09:00,85.1,77.5,29.92,South,171,5.0,6.0,78,0.00,,,0.00,Wunderground v.1.15,2013-08-03 20:09:00,
2013-08-03 16:19:00,85.7,76.9,29.92,SSE,157,3.0,3.0,75,0.00,,,0.00,Wunderground v.1.15,2013-08-03 20:19:00,
2013-08-03 16:29:00,86.4,77.5,29.92,SSE,157,5.0,7.0,75,0.00,,,0.00,Wunderground v.1.15,2013-08-03 20:29:00,
2013-08-03 16:39:00,86.0,77.1,29.91,SSW,196,5.0,5.0,75,0.00,,,0.00,Wunderground v.1.15,2013-08-03 20:39:00,
2013-08-03 16:44:00,86.1,76.8,29.91,SSW,213,5.0,5.0,74,0.00,,,0.00,Wunderground v.1.15,2013-08-03 20:44:00,
2013-08-03 16:54:00,86.4,77.5,29.91,SE,140,4.0,4.0,75,0.00,,,0.00,Wunderground v.1.15,2013-08-03 20:54:00,
2013-08-03 17:04:00,86.2,77.7,29.91,SSW,212,5.0,6.0,76,0.00,,,0.00,Wunderground v.1.15,2013-08-03 21:04:00,
2013-08-03 17:14:00,86.3,77.8,29.91,SSE,159,5.0,5.0,76,0.00,,,0.00,Wunderground v.1.15,2013-08-03 21:14:00,
2013-08-03 17:24:00,85.9,77.1,29.90,SE,134,7.0,10.0,75,0.00,,,0.00,Wunderground v.1.15,2013-08-03 21:24:00,
2013-08-03 17:34:00,85.4,77.4,29.90,SE,144,5.0,9.0,77,0.00,,,0.00,Wunderground v.1.15,2013-08-03 21:34:00,
2013-08-03 17:44:00,85.1,76.7,29.90,SSE,168,5.0,7.0,76,0.00,,,0.00,Wunderground v.1.15,2013-08-03 21:44:00,
2013-08-03 17:49:00,85.2,76.8,29.90,SSE,164,6.0,6.0,76,0.00,,,0.00,Wunderground v.1.15,2013-08-03 21:49:00,
2013-08-03 17:59:00,85.2,76.8,29.90,SSW,200,5.0,7.0,76,0.00,,,0.00,Wunderground v.1.15,2013-08-03 21:59:00,
2013-08-03 18:09:00,84.9,76.1,29.90,South,180,4.0,6.0,75,0.00,,,0.00,Wunderground v.1.15,2013-08-03 22:09:00,
2013-08-03 18:19:00,84.6,76.2,29.90,SSE,149,4.0,6.0,76,0.00,,,0.00,Wunderground v.1.15,2013-08-03 22:19:00,
2013-08-03 18:29:00,84.6,75.8,29.90,SSW,208,4.0,5.0,75,0.00,,,0.00,Wunderground v.1.15,2013-08-03 22:29:00,
2013-08-03 18:39:00,84.6,76.2,29.90,South,186,4.0,4.0,76,0.00,,,0.00,Wunderground v.1.15,2013-08-03 22:39:00,
2013-08-03 18:49:00,84.1,76.5,29.90,SSE,161,4.0,4.0,78,0.00,,,0.00,Wunderground v.1.15,2013-08-03 22:49:00,
2013-08-03 18:59:00,83.4,76.2,29.90,SSE,161,5.0,5.0,79,0.00,,,0.00,Wunderground v.1.15,2013-08-03 22:59:00,
2013-08-03 19:04:00,83.2,76.0,29.90,South,190,4.0,5.0,79,0.00,,,0.00,Wunderground v.1.15,2013-08-03 23:04:00,
2013-08-03 19:14:00,83.1,76.3,29.90,SSE,156,3.0,4.0,80,0.00,,,0.00,Wunderground v.1.15,2013-08-03 23:14:00,
2013-08-03 19:24:00,82.7,75.9,29.89,SSE,160,2.0,3.0,80,0.00,,,0.00,Wunderground v.1.15,2013-08-03 23:24:00,
2013-08-03 19:34:00,82.5,75.7,29.90,SSW,202,3.0,3.0,80,0.00,,,0.00,Wunderground v.1.15,2013-08-03 23:34:00,
2013-08-03 19:39:00,82.5,75.7,29.90,SSW,203,3.0,4.0,80,0.00,,,0.00,Wunderground v.1.15,2013-08-03 23:39:00,
2013-08-03 19:49:00,82.2,75.8,29.91,SSW,202,3.0,3.0,81,0.00,,,0.00,Wunderground v.1.15,2013-08-03 23:49:00,
2013-08-03 19:59:00,81.9,75.9,29.90,South,170,2.0,2.0,82,0.00,,,0.00,Wunderground v.1.15,2013-08-03 23:59:00,
2013-08-03 20:09:00,81.6,75.9,29.91,SSW,211,2.0,4.0,83,0.00,,,0.00,Wunderground v.1.15,2013-08-04 00:09:00,
2013-08-03 20:14:00,81.6,75.9,29.91,SSW,198,3.0,4.0,83,0.00,,,0.00,Wunderground v.1.15,2013-08-04 00:14:00,
2013-08-03 20:24:00,81.5,75.8,29.91,South,190,3.0,4.0,83,0.00,,,0.00,Wunderground v.1.15,2013-08-04 00:24:00,
2013-08-03 20:29:00,81.3,75.6,29.91,SSW,211,3.0,4.0,83,0.00,,,0.00,Wunderground v.1.15,2013-08-04 00:29:00,
2013-08-03 20:39:00,81.1,75.8,29.91,SSW,206,3.0,5.0,84,0.00,,,0.00,Wunderground v.1.15,2013-08-04 00:39:00,
2013-08-03 20:44:00,81.1,75.8,29.92,SW,224,3.0,5.0,84,0.00,,,0.00,Wunderground v.1.15,2013-08-04 00:44:00,
2013-08-03 20:54:00,80.9,76.0,29.92,SW,230,3.0,4.0,85,0.00,,,0.00,Wunderground v.1.15,2013-08-04 00:54:00,
2013-08-03 21:04:00,80.7,75.4,29.91,SSW,211,4.0,6.0,84,0.00,,,0.00,Wunderground v.1.15,2013-08-04 01:04:00,
2013-08-03 21:14:00,80.6,75.3,29.92,SW,223,4.0,5.0,84,0.00,,,0.00,Wunderground v.1.15,2013-08-04 01:14:00,
2013-08-03 21:24:00,80.5,75.6,29.92,SW,223,2.0,3.0,85,0.00,,,0.00,Wunderground v.1.15,2013-08-04 01:24:00,
2013-08-03 21:34:00,80.4,75.5,29.92,SW,226,4.0,5.0,85,0.00,,,0.00,Wunderground v.1.15,2013-08-04 01:34:00,
2013-08-03 21:44:00,80.2,75.3,29.93,WSW,256,3.0,4.0,85,0.00,,,0.00,Wunderground v.1.15,2013-08-04 01:44:00,
2013-08-03 21:54:00,80.0,75.8,29.93,SW,229,3.0,5.0,87,0.00,,,0.00,Wunderground v.1.15,2013-08-04 01:54:00,
2013-08-03 22:04:00,80.0,75.8,29.93,SW,232,3.0,4.0,87,0.00,,,0.00,Wunderground v.1.15,2013-08-04 02:04:00,
2013-08-03 22:14:00,80.0,75.8,29.94,SW,228,4.0,4.0,87,0.00,,,0.00,Wunderground v.1.15,2013-08-04 02:14:00,
2013-08-03 22:24:00,79.8,75.9,29.94,SW,236,3.0,3.0,88,0.00,,,0.00,Wunderground v.1.15,2013-08-04 02:24:00,
2013-08-03 22:34:00,79.7,75.8,29.93,SW,236,3.0,5.0,88,0.00,,,0.00,Wunderground v.1.15,2013-08-04 02:34:00,
2013-08-03 22:44:00,79.4,75.5,29.93,SW,236,2.0,3.0,88,0.00,,,0.00,Wunderground v.1.15,2013-08-04 02:44:00,
2013-08-03 22:54:00,79.3,75.8,29.93,SW,234,2.0,4.0,89,0.00,,,0.00,Wunderground v.1.15,2013-08-04 02:54:00,
2013-08-03 23:04:00,79.2,75.7,29.93,SW,234,2.0,3.0,89,0.00,,,0.00,Wunderground v.1.15,2013-08-04 03:04:00,
2013-08-03 23:14:00,79.1,75.9,29.94,SW,234,1.0,2.0,90,0.00,,,0.00,Wunderground v.1.15,2013-08-04 03:14:00,
2013-08-03 23:19:00,79.0,75.8,29.94,SSW,213,2.0,4.0,90,0.00,,,0.00,Wunderground v.1.15,2013-08-04 03:19:00,
2013-08-03 23:29:00,78.8,75.6,29.94,SSW,213,3.0,3.0,90,0.00,,,0.00,Wunderground v.1.15,2013-08-04 03:29:00,
2013-08-03 23:39:00,78.6,75.8,29.94,SSW,213,1.0,3.0,91,0.00,,,0.00,Wunderground v.1.15,2013-08-04 03:39:00,
2013-08-03 23:49:00,78.6,75.8,29.93,SSW,213,2.0,2.0,91,0.00,,,0.00,Wunderground v.1.15,2013-08-04 03:49:00,
2013-08-03 23:59:00,78.5,75.7,29.93,SSW,213,2.0,2.0,91,0.00,,,0.00,Wunderground v.1.15,2013-08-04 03:59:00,